Anthony, Kansas
Current Conditions -  °F | °C
As of 5:50 PM on Friday 24 Oct 2014 (Local Time) from KAVK Reporting Station
Clear Clear  
Wind Chill: 82°   Ceiling: Unl
Heat Index: 82°   Visibility: 10mi
Dew Point: 59°   Wind: 8mph
Humidity: 45%   Direction: 200°SSW
Pressure: 30"   Gusts: NA
Location:  37.15°N, 98.03°W
Report Text: KAVK 242250Z AUTO 20007KT 10SM CLR 28/15 A3000 RMK AO2
Loading
Personal Weather Stations






























Interactive Weather Map New forecast layout! Learn more

10-Day Weather Forecast

Advertisements
Track Severe Weather on mobile